Time;durP1;ratioP1;P1;durP2;ratioP2;P2;SDS_P1;SDS_P2;PMS_P1;PMS_P2;Temp;Humidity;BMP_temperature;BMP_pressure;BME280_temperature;BME280_humidity;BME280_pressure;Samples;Min_cycle;Max_cycle;Signal;HPM_P1;HPM_P2
2021/08/14 00:00:06;;;;;;;14.90;8.18;;;;;;;15.45;75.75;100379.97;4997729;28;20081;-80
2021/08/14 00:02:32;;;;;;;20.35;8.75;;;;;;;15.43;75.95;100373.03;5015102;28;20053;-80
2021/08/14 00:05:01;;;;;;;18.35;8.25;;;;;;;15.44;76.20;100386.13;5013622;28;20120;-81
2021/08/14 00:07:30;;;;;;;18.42;8.00;;;;;;;15.24;76.14;100373.41;5013177;28;20527;-78
2021/08/14 00:09:58;;;;;;;17.65;8.75;;;;;;;15.24;76.05;100396.13;5014915;28;20606;-76
2021/08/14 00:12:23;;;;;;;18.60;9.40;;;;;;;15.12;76.32;100386.72;5013089;28;20041;-78
2021/08/14 00:14:49;;;;;;;14.95;7.93;;;;;;;15.16;76.42;100409.38;4998690;28;20067;-79
2021/08/14 00:17:15;;;;;;;18.08;8.38;;;;;;;15.03;76.52;100388.63;4997903;28;20100;-81
2021/08/14 00:19:41;;;;;;;18.17;9.60;;;;;;;14.93;76.73;100373.09;4998960;28;20041;-78
2021/08/14 00:22:06;;;;;;;20.60;8.63;;;;;;;14.90;76.52;100381.88;5014264;28;20038;-79
2021/08/14 00:24:32;;;;;;;17.25;8.93;;;;;;;14.95;76.53;100401.00;5000353;28;20034;-76
2021/08/14 00:26:58;;;;;;;17.48;9.45;;;;;;;14.88;76.84;100400.25;5018703;28;20040;-77
2021/08/14 00:29:24;;;;;;;31.60;9.75;;;;;;;14.91;76.90;100413.31;5000680;28;20136;-78
2021/08/14 00:31:50;;;;;;;15.82;9.00;;;;;;;14.76;76.94;100398.69;4997156;28;20464;-78
2021/08/14 00:34:16;;;;;;;16.80;9.27;;;;;;;14.81;76.95;100413.47;5015330;28;20119;-80
2021/08/14 00:36:42;;;;;;;16.10;9.02;;;;;;;14.76;77.06;100417.03;5013383;28;20053;-80
2021/08/14 00:39:08;;;;;;;15.93;9.27;;;;;;;14.76;77.06;100418.81;5011953;28;20046;-78
2021/08/14 00:41:34;;;;;;;18.92;10.30;;;;;;;14.72;77.15;100410.13;5011892;28;20029;-77
2021/08/14 00:44:03;;;;;;;19.27;11.00;;;;;;;14.69;77.19;100425.88;4995115;28;20049;-79
2021/08/14 00:46:30;;;;;;;21.52;11.32;;;;;;;14.67;77.51;100425.03;5011133;28;20038;-80
2021/08/14 00:48:58;;;;;;;19.25;11.25;;;;;;;14.65;77.53;100429.41;5012540;28;20107;-79
2021/08/14 00:51:24;;;;;;;19.55;11.48;;;;;;;14.62;77.61;100434.69;5012625;28;20084;-80
2021/08/14 00:53:50;;;;;;;19.58;11.82;;;;;;;14.60;77.72;100433.88;5011410;28;20058;-77
2021/08/14 00:56:20;;;;;;;16.15;11.20;;;;;;;14.53;77.59;100424.34;5011285;28;20042;-80
2021/08/14 00:58:47;;;;;;;19.33;11.38;;;;;;;14.55;77.64;100433.06;5011250;28;20095;-78
2021/08/14 01:01:14;;;;;;;16.17;11.13;;;;;;;14.39;77.85;100407.13;4995533;28;20076;-83
2021/08/14 01:03:40;;;;;;;22.27;10.73;;;;;;;14.46;78.15;100424.44;4994844;28;20038;-80
2021/08/14 01:06:06;;;;;;;17.10;10.63;;;;;;;14.42;78.11;100420.16;5011801;28;20179;-77
2021/08/14 01:08:31;;;;;;;18.65;10.27;;;;;;;14.45;78.18;100422.72;4996695;28;20045;-81
2021/08/14 01:11:00;;;;;;;12.88;9.07;;;;;;;14.41;78.42;100420.16;5015185;28;20051;-78
2021/08/14 01:13:26;;;;;;;18.58;9.60;;;;;;;14.44;78.35;100420.13;5006528;28;20065;-77
2021/08/14 01:15:52;;;;;;;17.40;9.60;;;;;;;14.43;78.62;100426.25;5026476;28;20093;-77
2021/08/14 01:18:19;;;;;;;16.85;9.63;;;;;;;14.40;78.46;100423.69;5014228;28;20113;-78
2021/08/14 01:20:45;;;;;;;22.55;10.23;;;;;;;14.33;79.02;100419.44;5011877;28;20053;-78
2021/08/14 01:23:11;;;;;;;22.63;11.35;;;;;;;14.36;78.78;100425.47;4995716;28;20468;-78
2021/08/14 01:25:38;;;;;;;19.00;9.82;;;;;;;14.32;78.92;100415.94;5012173;28;20045;-80
2021/08/14 01:28:04;;;;;;;15.57;9.88;;;;;;;14.33;79.04;100420.28;4994259;28;20544;-80
2021/08/14 01:30:30;;;;;;;21.70;9.68;;;;;;;14.29;78.98;100418.59;5010713;28;20061;-79
2021/08/14 01:32:55;;;;;;;14.40;9.52;;;;;;;14.18;78.87;100405.66;5012323;28;20092;-81
2021/08/14 01:35:21;;;;;;;17.15;9.60;;;;;;;14.31;78.94;100427.28;4994542;28;20041;-79
2021/08/14 01:37:47;;;;;;;19.67;10.02;;;;;;;14.30;79.17;100428.19;5026090;28;20057;-78
2021/08/14 01:40:14;;;;;;;16.35;9.15;;;;;;;14.15;79.21;100411.81;5029542;28;20042;-77
2021/08/14 01:42:39;;;;;;;16.35;8.98;;;;;;;14.28;79.15;100427.34;5005435;28;20119;-79
2021/08/14 01:45:07;;;;;;;15.45;9.25;;;;;;;14.28;79.40;100427.34;5015735;28;20050;-78
2021/08/14 01:47:33;;;;;;;17.00;9.65;;;;;;;14.27;79.32;100429.09;5013695;28;20624;-79
2021/08/14 01:49:59;;;;;;;15.00;9.50;;;;;;;14.11;79.45;100404.88;5012366;28;20062;-78
2021/08/14 01:52:24;;;;;;;16.90;9.10;;;;;;;14.25;79.49;100430.00;5012180;28;20049;-78
2021/08/14 01:54:50;;;;;;;21.08;10.05;;;;;;;14.13;79.66;100410.09;5012880;28;20414;-77
2021/08/14 01:57:16;;;;;;;16.55;9.85;;;;;;;14.21;79.51;100428.34;5011808;28;20119;-79
2021/08/14 01:59:43;;;;;;;17.70;8.98;;;;;;;14.12;79.55;100422.31;5010876;28;20153;-76
2021/08/14 02:02:09;;;;;;;20.73;9.77;;;;;;;14.22;79.53;100440.53;5011272;28;20042;-76
2021/08/14 02:04:35;;;;;;;15.90;9.15;;;;;;;14.08;79.74;100415.41;5011700;28;20104;-79
2021/08/14 02:07:01;;;;;;;15.93;9.48;;;;;;;14.11;79.75;100420.59;5011325;28;20033;-79
2021/08/14 02:09:27;;;;;;;19.73;9.93;;;;;;;14.21;79.86;100431.78;5015411;28;20038;-76
2021/08/14 02:11:53;;;;;;;14.35;9.40;;;;;;;14.23;79.97;100435.25;5021384;28;20117;-74
2021/08/14 02:14:19;;;;;;;16.63;9.98;;;;;;;14.20;79.53;100421.38;5003244;28;20041;-77
2021/08/14 02:16:45;;;;;;;24.38;10.15;;;;;;;14.22;79.82;100430.06;5012531;28;20042;-78
2021/08/14 02:19:10;;;;;;;16.77;9.00;;;;;;;14.14;79.92;100423.16;5011743;28;20053;-78
2021/08/14 02:21:38;;;;;;;17.08;9.38;;;;;;;14.12;80.08;100418.84;5012255;28;20041;-80
2021/08/14 02:24:04;;;;;;;15.15;8.95;;;;;;;14.22;80.01;100424.81;5010933;28;20046;-80
2021/08/14 02:26:30;;;;;;;12.85;8.55;;;;;;;14.16;79.90;100410.06;5014258;28;20064;-77
2021/08/14 02:28:56;;;;;;;16.45;9.02;;;;;;;14.33;79.97;100435.16;4997678;28;20513;-77
2021/08/14 02:31:22;;;;;;;20.27;9.40;;;;;;;14.30;79.87;100429.06;5018064;28;20556;-77
2021/08/14 02:33:48;;;;;;;18.23;9.40;;;;;;;14.33;80.02;100422.91;5019745;28;20036;-79
2021/08/14 02:36:15;;;;;;;17.35;10.13;;;;;;;14.36;79.88;100433.34;5000853;28;20088;-78
2021/08/14 02:38:41;;;;;;;21.02;9.80;;;;;;;14.41;79.98;100441.13;5016879;28;20142;-80
2021/08/14 02:41:08;;;;;;;16.33;9.25;;;;;;;14.43;79.96;100437.59;5018386;28;20037;-78
2021/08/14 02:43:34;;;;;;;16.15;8.48;;;;;;;14.48;80.03;100441.88;5016723;28;20041;-76
2021/08/14 02:46:00;;;;;;;12.57;8.85;;;;;;;14.53;79.97;100434.84;5016948;28;20452;-79
2021/08/14 02:48:30;;;;;;;13.50;8.60;;;;;;;14.57;79.89;100442.59;5014742;28;20077;-78
2021/08/14 02:50:56;;;;;;;19.02;10.00;;;;;;;14.62;79.95;100439.94;5014781;28;20056;-77
2021/08/14 02:53:22;;;;;;;17.55;8.82;;;;;;;14.64;79.83;100422.47;5014330;28;20037;-76
2021/08/14 02:55:49;;;;;;;17.95;9.75;;;;;;;14.61;79.87;100419.88;4996558;28;20132;-79
2021/08/14 02:58:14;;;;;;;20.50;9.50;;;;;;;14.75;79.98;100431.03;5013772;28;20154;-80
2021/08/14 03:00:40;;;;;;;18.15;9.48;;;;;;;14.81;79.74;100429.19;5013219;28;20564;-80
2021/08/14 03:03:06;;;;;;;21.88;9.52;;;;;;;14.81;80.00;100426.59;5013226;28;20144;-78
2021/08/14 03:05:32;;;;;;;15.88;9.50;;;;;;;14.90;79.80;100432.53;5014768;28;20049;-78
2021/08/14 03:07:58;;;;;;;18.80;9.45;;;;;;;14.78;79.86;100393.44;5014623;28;20045;-78
2021/08/14 03:10:24;;;;;;;19.13;10.23;;;;;;;14.97;80.07;100421.97;5013346;28;20093;-80
2021/08/14 03:12:50;;;;;;;22.23;9.63;;;;;;;15.12;79.88;100442.66;5012458;28;20042;-77
2021/08/14 03:15:16;;;;;;;19.52;9.50;;;;;;;15.19;79.90;100446.00;5014534;28;20072;-79
2021/08/14 03:17:42;;;;;;;18.25;9.48;;;;;;;15.27;79.77;100446.75;5014320;28;20045;-81
2021/08/14 03:20:09;;;;;;;23.65;10.13;;;;;;;15.36;79.72;100448.34;5030958;28;20065;-79
2021/08/14 03:22:35;;;;;;;26.63;10.38;;;;;;;15.44;79.59;100450.81;5022997;28;20126;-82
2021/08/14 03:25:01;;;;;;;18.83;9.75;;;;;;;15.51;79.44;100445.44;4997691;28;20073;-84
2021/08/14 03:27:27;;;;;;;26.92;10.02;;;;;;;15.65;79.45;100450.41;4996339;28;20089;-79
2021/08/14 03:29:52;;;;;;;23.05;10.23;;;;;;;15.72;79.30;100445.06;5013793;28;20498;-80
2021/08/14 03:32:19;;;;;;;19.38;9.18;;;;;;;15.85;79.29;100443.91;5025545;28;20036;-82
2021/08/14 03:34:45;;;;;;;20.92;9.32;;;;;;;15.98;79.34;100452.41;5035295;28;20498;-76
2021/08/14 03:37:11;;;;;;;17.40;8.77;;;;;;;16.03;79.16;100440.06;5027328;28;20053;-75
2021/08/14 03:39:38;;;;;;;16.38;9.43;;;;;;;16.15;79.03;100432.81;4998923;28;20496;-78
2021/08/14 03:42:04;;;;;;;20.35;10.00;;;;;;;16.31;79.00;100447.34;5014409;28;20082;-80
2021/08/14 03:44:30;;;;;;;17.55;8.65;;;;;;;16.32;78.51;100427.19;5013845;28;20041;-79
2021/08/14 03:46:56;;;;;;;24.10;9.20;;;;;;;16.43;78.72;100433.06;5012738;28;20095;-77
2021/08/14 03:49:21;;;;;;;20.13;9.27;;;;;;;16.59;78.38;100435.31;4996754;28;20053;-80
2021/08/14 03:51:47;;;;;;;21.02;9.75;;;;;;;16.79;78.12;100454.09;5014269;28;20045;-77
2021/08/14 03:54:13;;;;;;;14.63;8.15;;;;;;;16.93;77.91;100453.78;4996310;28;20065;-81
2021/08/14 03:56:39;;;;;;;16.30;8.32;;;;;;;17.08;77.62;100449.94;5012193;28;20033;-80
2021/08/14 03:59:04;;;;;;;15.20;9.13;;;;;;;17.14;77.50;100435.75;4995457;28;20465;-77
2021/08/14 04:01:30;;;;;;;20.25;9.02;;;;;;;17.34;77.32;100445.72;5012404;28;20041;-77
2021/08/14 04:04:02;;;;;;;20.20;9.32;;;;;;;17.63;77.16;100459.03;5013332;28;20057;-80
2021/08/14 04:06:29;;;;;;;15.02;8.30;;;;;;;17.73;76.72;100449.94;5013053;28;20115;-80
2021/08/14 04:08:54;;;;;;;18.63;8.95;;;;;;;17.99;76.23;100445.72;5015176;28;20135;-77
2021/08/14 04:11:20;;;;;;;19.13;8.85;;;;;;;18.11;75.89;100445.34;5013384;28;20425;-79
2021/08/14 04:13:46;;;;;;;18.38;8.88;;;;;;;18.30;75.42;100456.22;5015071;28;20045;-76
2021/08/14 04:16:12;;;;;;;16.67;8.93;;;;;;;18.46;74.94;100455.72;5013926;28;20107;-77
2021/08/14 04:18:37;;;;;;;19.73;9.10;;;;;;;18.58;74.86;100444.81;5013774;28;20148;-76
2021/08/14 04:21:03;;;;;;;15.88;8.75;;;;;;;18.87;74.47;100455.31;5014098;28;20038;-80
2021/08/14 04:23:34;;;;;;;17.35;9.35;;;;;;;19.14;73.99;100452.69;4998520;28;20133;-77
2021/08/14 04:26:00;;;;;;;19.90;11.77;;;;;;;19.37;73.47;100446.63;5012892;28;20050;-78
2021/08/14 04:28:27;;;;;;;27.58;15.90;;;;;;;19.69;73.00;100453.38;5011751;28;20046;-78
2021/08/14 04:31:13;;;;;;;23.27;14.68;;;;;;;20.01;72.58;100450.47;4994963;28;20034;-78
2021/08/14 04:33:41;;;;;;;17.33;12.50;;;;;;;20.25;71.87;100453.09;5012999;28;20064;-80
2021/08/14 04:36:07;;;;;;;18.23;11.30;;;;;;;20.40;71.03;100436.66;5011504;28;20045;-79
2021/08/14 04:38:49;;;;;;;16.27;9.27;;;;;;;20.29;69.87;100386.00;5011420;28;20050;-79
2021/08/14 04:41:15;;;;;;;13.60;9.20;;;;;;;20.90;69.54;100454.06;4979984;28;20050;-79
2021/08/14 04:43:47;;;;;;;12.18;8.75;;;;;;;21.09;69.15;100444.47;5013730;28;20061;-80
2021/08/14 04:46:43;;;;;;;;;;;;;;;;;;;;;
2021/08/14 04:49:10;;;;;;;11.73;8.35;;;;;;;21.47;67.10;100455.22;4997387;28;20045;-81
2021/08/14 04:51:40;;;;;;;13.02;7.85;;;;;;;21.58;66.63;100446.78;5014423;28;20053;-78
2021/08/14 04:54:12;;;;;;;16.02;8.32;;;;;;;21.77;65.51;100458.28;5015125;28;20062;-76
2021/08/14 04:56:40;;;;;;;12.43;7.22;;;;;;;21.77;65.17;100415.94;5012075;28;20132;-78
2021/08/14 04:59:09;;;;;;;12.25;6.78;;;;;;;22.18;64.45;100452.00;4996563;28;20041;-82
2021/08/14 05:01:42;;;;;;;14.07;7.57;;;;;;;22.16;63.66;100405.31;5011353;28;20057;-79
2021/08/14 05:04:07;;;;;;;15.55;7.15;;;;;;;22.46;62.80;100421.56;4994302;28;20057;-80
2021/08/14 05:06:33;;;;;;;11.45;7.18;;;;;;;22.76;62.14;100444.84;5013438;28;20046;-79
2021/08/14 05:09:01;;;;;;;15.07;8.20;;;;;;;22.80;61.45;100434.94;5013464;28;20048;-79
2021/08/14 05:11:30;;;;;;;13.07;7.88;;;;;;;22.91;61.02;100432.63;4995472;28;20077;-79
2021/08/14 05:13:55;;;;;;;12.73;8.13;;;;;;;22.93;60.70;100417.50;5013106;28;20065;-79
2021/08/14 05:16:31;;;;;;;18.38;7.43;;;;;;;23.16;60.36;100436.69;5011852;28;20127;-78
2021/08/14 05:18:57;;;;;;;16.17;9.10;;;;;;;23.45;60.21;100434.31;4980737;28;20046;-79
2021/08/14 05:21:26;;;;;;;11.57;6.80;;;;;;;23.61;59.44;100423.75;5013706;28;20046;-81
2021/08/14 05:23:52;;;;;;;14.50;7.93;;;;;;;23.80;59.26;100428.06;5016615;28;20505;-77
2021/08/14 05:26:17;;;;;;;12.82;7.43;;;;;;;24.24;58.49;100442.53;5026996;28;20038;-77
2021/08/14 05:28:43;;;;;;;10.25;6.47;;;;;;;24.77;58.29;100435.13;5029664;28;20018;-78
2021/08/14 05:31:11;;;;;;;11.40;6.18;;;;;;;25.63;57.17;100428.25;5031769;28;20057;-76
2021/08/14 05:33:37;;;;;;;9.77;5.78;;;;;;;27.44;56.21;100415.56;5025006;28;20097;-81
2021/08/14 05:36:03;;;;;;;13.45;5.70;;;;;;;29.28;53.08;100407.44;5015834;28;20446;-81
2021/08/14 05:38:29;;;;;;;12.85;6.13;;;;;;;30.96;49.70;100407.31;5009289;28;20026;-82
2021/08/14 05:40:55;;;;;;;8.55;5.15;;;;;;;32.58;46.74;100419.09;5011286;28;20081;-78
2021/08/14 05:43:21;;;;;;;11.25;5.35;;;;;;;33.90;42.49;100420.19;5011008;28;20065;-77
2021/08/14 05:45:59;;;;;;;7.90;4.93;;;;;;;34.56;39.47;100321.94;5013245;28;20065;-78
2021/08/14 05:48:25;;;;;;;10.93;4.90;;;;;;;35.93;37.05;100373.53;5013530;28;20069;-80
2021/08/14 05:50:51;;;;;;;7.18;4.57;;;;;;;36.86;35.14;100375.09;4995644;28;20093;-80
2021/08/14 05:53:18;;;;;;;6.57;4.45;;;;;;;37.94;32.99;100413.63;5012525;28;20124;-78
2021/08/14 05:55:45;;;;;;;9.88;4.30;;;;;;;38.57;31.27;100388.22;5012510;28;20054;-79
2021/08/14 05:58:11;;;;;;;6.72;4.20;;;;;;;39.36;29.48;100380.66;4979849;28;20034;-81
2021/08/14 06:00:38;;;;;;;8.80;4.20;;;;;;;40.23;28.01;100398.03;5011452;28;20045;-78
2021/08/14 06:03:07;;;;;;;7.70;4.28;;;;;;;40.43;26.63;100316.44;5010215;28;20045;-79
2021/08/14 06:05:34;;;;;;;6.27;4.30;;;;;;;41.77;26.26;100428.25;5010320;28;20046;-79
2021/08/14 06:08:02;;;;;;;6.45;3.90;;;;;;;42.16;24.62;100393.09;5012021;28;20280;-76
2021/08/14 06:10:28;;;;;;;7.97;3.92;;;;;;;42.94;23.63;100423.59;4994467;28;20124;-77
2021/08/14 06:12:53;;;;;;;5.85;4.18;;;;;;;43.36;22.45;100418.72;5012492;28;20073;-78
2021/08/14 06:15:19;;;;;;;7.28;4.07;;;;;;;43.75;22.02;100405.06;5014165;28;20488;-80
2021/08/14 06:17:54;;;;;;;9.20;4.80;;;;;;;44.36;20.80;100403.63;5016125;28;20049;-82
2021/08/14 06:20:20;;;;;;;6.80;4.03;;;;;;;44.45;21.10;100414.38;5022718;28;20034;-79
2021/08/14 06:22:58;;;;;;;8.85;4.72;;;;;;;44.42;19.97;100327.03;5020373;28;20034;-78
2021/08/14 06:25:36;;;;;;;10.23;4.88;;;;;;;45.07;19.34;100430.88;5015832;28;20136;-82
2021/08/14 06:28:02;;;;;;;9.27;4.05;;;;;;;45.16;19.16;100365.53;5016891;28;20070;-78
2021/08/14 06:30:44;;;;;;;9.00;4.60;;;;;;;45.27;18.71;100337.34;5015606;28;20128;-81
2021/08/14 06:33:15;;;;;;;6.78;4.22;;;;;;;46.16;18.06;100425.72;5017356;28;20038;-79
2021/08/14 06:35:43;;;;;;;8.60;4.80;;;;;;;46.11;17.50;100400.88;5017315;28;20095;-79
2021/08/14 06:38:23;;;;;;;8.80;3.92;;;;;;;45.97;16.58;100329.59;4999843;28;20200;-79
2021/08/14 06:41:18;;;;;;;9.10;3.92;;;;;;;46.74;16.21;100417.81;4990289;28;20128;-82
2021/08/14 06:43:47;;;;;;;7.78;4.20;;;;;;;46.16;15.75;100387.25;5013759;28;20037;-80
2021/08/14 06:46:16;;;;;;;8.63;4.00;;;;;;;46.27;16.09;100396.59;5014776;28;20042;-79
2021/08/14 06:48:49;;;;;;;6.03;4.20;;;;;;;46.59;15.81;100399.03;5013589;28;20061;-81
2021/08/14 06:51:26;;;;;;;7.68;3.90;;;;;;;46.41;15.35;100425.56;4980936;28;20046;-82
2021/08/14 06:53:55;;;;;;;8.35;3.80;;;;;;;45.72;15.57;100327.03;5012913;28;20571;-83
2021/08/14 06:56:21;;;;;;;6.40;4.05;;;;;;;46.34;15.24;100375.31;5013171;28;20065;-79
2021/08/14 06:58:47;;;;;;;6.18;4.20;;;;;;;46.68;14.65;100342.56;5014035;28;20183;-77
2021/08/14 07:01:13;;;;;;;7.40;4.32;;;;;;;47.02;14.84;100304.25;5013519;28;20521;-80
2021/08/14 07:03:48;;;;;;;8.68;4.90;;;;;;;47.80;14.46;100397.50;5013959;28;20042;-76
2021/08/14 07:06:23;;;;;;;;;;;;;;;48.00;14.85;100404.47;5013992;28;20041;-81
2021/08/14 07:09:06;;;;;;;13.77;5.40;;;;;;;48.35;14.39;100410.88;5013429;28;20408;-81
2021/08/14 07:12:10;;;;;;;7.18;5.15;;;;;;;48.05;14.29;100365.13;5013174;28;20050;-80
2021/08/14 07:14:37;;;;;;;7.60;4.45;;;;;;;47.65;14.04;100312.63;5013358;28;20087;-80
2021/08/14 07:17:08;;;;;;;8.88;4.47;;;;;;;47.37;13.55;100324.50;4998079;28;20649;-78
2021/08/14 07:19:37;;;;;;;6.97;4.03;;;;;;;47.35;13.80;100354.19;4996564;28;20056;-76
2021/08/14 07:22:21;;;;;;;7.85;3.90;;;;;;;47.43;13.38;100333.69;5015265;28;20038;-82
2021/08/14 07:24:50;;;;;;;4.30;3.58;;;;;;;48.22;13.28;100388.03;5031340;28;20061;-77
2021/08/14 07:27:24;;;;;;;5.63;4.13;;;;;;;48.18;13.10;100328.13;5027683;28;20121;-76
2021/08/14 07:29:50;;;;;;;7.32;3.67;;;;;;;46.93;13.78;100407.53;5035647;28;20084;-78
2021/08/14 07:32:16;;;;;;;6.70;3.78;;;;;;;46.56;14.11;100397.63;5033247;28;20042;-76
2021/08/14 07:34:42;;;;;;;8.68;4.07;;;;;;;45.91;14.75;100410.22;5023265;28;20905;-81
2021/08/14 07:37:07;;;;;;;6.15;4.18;;;;;;;45.95;14.26;100405.94;5012927;28;20453;-79
2021/08/14 07:39:33;;;;;;;7.35;4.50;;;;;;;46.84;14.68;100412.56;5012154;28;20045;-82
2021/08/14 07:42:00;;;;;;;7.25;4.03;;;;;;;47.43;13.64;100402.53;4996349;28;20042;-74
2021/08/14 07:44:28;;;;;;;4.85;3.50;;;;;;;48.42;13.24;100400.53;4998005;28;20038;-76
2021/08/14 07:46:56;;;;;;;6.93;3.72;;;;;;;48.45;13.18;100396.41;5014940;28;20542;-79
2021/08/14 07:49:22;;;;;;;9.52;4.05;;;;;;;47.85;13.18;100404.19;5015389;28;20112;-76
2021/08/14 07:51:48;;;;;;;4.38;3.40;;;;;;;47.54;13.22;100396.16;4982072;28;20041;-76
2021/08/14 07:54:14;;;;;;;6.38;3.60;;;;;;;47.63;12.76;100389.19;5014730;28;20157;-77
2021/08/14 07:56:39;;;;;;;5.78;3.20;;;;;;;45.50;14.33;100403.56;5013094;28;20049;-74
2021/08/14 07:59:05;;;;;;;5.72;3.60;;;;;;;45.27;15.00;100402.38;5014730;28;20099;-74
2021/08/14 08:01:34;;;;;;;7.15;3.60;;;;;;;47.12;13.46;100401.91;5013482;28;20037;-74
2021/08/14 08:04:05;;;;;;;4.53;3.42;;;;;;;46.14;14.01;100401.25;5013266;28;20042;-78
2021/08/14 08:06:54;;;;;;;4.40;3.40;;;;;;;44.32;14.83;100401.56;4997222;28;20033;-76
2021/08/14 08:09:20;;;;;;;5.97;3.30;;;;;;;42.52;15.98;100400.06;4991842;28;20128;-77
2021/08/14 08:11:46;;;;;;;3.47;3.13;;;;;;;41.24;17.07;100393.38;4996342;28;20049;-78
2021/08/14 08:14:12;;;;;;;5.45;3.55;;;;;;;42.23;17.16;100404.88;4994316;28;20116;-79
2021/08/14 08:16:38;;;;;;;4.95;3.45;;;;;;;43.31;16.65;100393.88;5013232;28;20125;-80
2021/08/14 08:19:03;;;;;;;7.60;4.60;;;;;;;44.55;16.00;100392.75;4995184;28;20120;-77
2021/08/14 08:21:30;;;;;;;5.80;3.45;;;;;;;43.73;15.84;100377.91;4978895;28;20064;-77
2021/08/14 08:23:57;;;;;;;7.25;3.55;;;;;;;42.29;16.43;100409.47;4994715;28;20542;-77
2021/08/14 08:26:24;;;;;;;3.25;2.95;;;;;;;42.44;17.01;100408.50;5012194;28;20074;-78
2021/08/14 08:28:52;;;;;;;3.50;3.00;;;;;;;44.43;15.57;100405.50;4994611;28;20096;-77
2021/08/14 08:31:17;;;;;;;5.63;3.30;;;;;;;46.22;14.17;100405.56;4994559;28;20555;-79
2021/08/14 08:33:44;;;;;;;4.22;3.03;;;;;;;45.68;14.07;100400.00;4994312;28;20033;-78
2021/08/14 08:36:10;;;;;;;3.42;2.95;;;;;;;44.68;14.56;100378.91;5011059;28;20046;-76
2021/08/14 08:38:40;;;;;;;6.00;3.35;;;;;;;43.55;15.36;100408.72;5012278;28;20045;-77
2021/08/14 08:41:09;;;;;;;4.40;3.05;;;;;;;44.39;15.29;100397.72;4994950;28;20124;-78
2021/08/14 08:43:40;;;;;;;6.97;3.33;;;;;;;46.02;13.90;100383.84;4996122;28;20053;-77
2021/08/14 08:46:12;;;;;;;5.88;2.90;;;;;;;47.30;13.17;100401.75;4993176;28;20038;-77
2021/08/14 08:48:50;;;;;;;4.13;3.22;;;;;;;48.26;12.61;100380.91;4993317;28;20462;-77
2021/08/14 08:51:28;;;;;;;3.47;3.15;;;;;;;48.91;12.17;100401.78;4977000;28;20070;-77
2021/08/14 08:53:54;;;;;;;4.63;3.47;;;;;;;49.51;11.73;100402.03;4993925;28;20473;-76
2021/08/14 08:56:20;;;;;;;7.88;4.22;;;;;;;49.25;11.82;100379.59;4993951;28;20103;-77
2021/08/14 08:58:46;;;;;;;7.38;3.97;;;;;;;49.74;10.97;100398.94;4990993;28;20042;-76
2021/08/14 09:01:12;;;;;;;4.90;3.40;;;;;;;48.52;11.59;100391.56;5007490;28;20124;-76
2021/08/14 09:03:38;;;;;;;5.30;3.30;;;;;;;46.98;12.02;100388.38;4990491;28;20371;-77
2021/08/14 09:06:04;;;;;;;6.63;3.20;;;;;;;44.88;13.34;100388.88;4992394;28;20049;-76
2021/08/14 09:08:30;;;;;;;4.90;3.30;;;;;;;43.00;14.63;100384.47;4991126;28;20128;-77
2021/08/14 09:11:25;;;;;;;4.10;3.00;;;;;;;43.19;14.83;100383.56;4991088;28;20102;-76
2021/08/14 09:14:07;;;;;;;7.22;3.20;;;;;;;45.04;13.74;100367.38;4981936;28;20050;-77
2021/08/14 09:16:38;;;;;;;5.43;3.20;;;;;;;44.73;13.49;100364.50;4976824;28;20042;-78
2021/08/14 09:19:25;;;;;;;6.13;3.60;;;;;;;42.86;14.65;100356.28;5008891;28;20054;-76
2021/08/14 09:21:51;;;;;;;3.90;3.35;;;;;;;41.31;15.52;100377.88;4998210;28;20038;-75
2021/08/14 09:24:31;;;;;;;6.15;3.58;;;;;;;41.67;16.28;100368.56;4993539;28;20069;-78
2021/08/14 09:27:00;;;;;;;7.13;3.92;;;;;;;43.09;15.20;100369.50;4998054;28;20041;-77
2021/08/14 09:29:34;;;;;;;8.88;3.63;;;;;;;44.24;14.28;100345.94;5010611;28;20045;-77
2021/08/14 09:32:02;;;;;;;5.32;3.45;;;;;;;45.90;13.34;100361.00;4994698;28;20056;-76
2021/08/14 09:34:28;;;;;;;4.13;3.53;;;;;;;47.19;12.85;100331.88;5013931;28;20081;-77
2021/08/14 09:37:14;;;;;;;6.43;4.43;;;;;;;48.06;11.73;100358.53;5014265;28;20532;-78
2021/08/14 09:39:59;;;;;;;5.38;3.70;;;;;;;48.60;11.26;100357.19;5012275;28;20448;-77
2021/08/14 09:42:26;;;;;;;6.25;3.92;;;;;;;49.15;10.88;100352.69;5011617;28;20390;-77
2021/08/14 09:45:17;;;;;;;5.00;4.32;;;;;;;49.58;10.43;100359.28;5011276;28;20052;-77
2021/08/14 09:47:51;;;;;;;6.22;4.10;;;;;;;49.84;10.40;100350.41;5009652;28;20391;-77
2021/08/14 09:50:16;;;;;;;5.00;3.80;;;;;;;49.67;10.62;100354.09;5013159;28;20092;-77
2021/08/14 09:52:42;;;;;;;4.43;3.90;;;;;;;49.86;10.33;100353.75;4997656;28;20120;-77
2021/08/14 09:55:38;;;;;;;4.97;3.70;;;;;;;50.28;10.10;100347.44;5014012;28;20425;-78
2021/08/14 09:58:10;;;;;;;5.00;3.70;;;;;;;50.76;10.36;100349.41;4998788;28;20069;-76
2021/08/14 10:00:45;;;;;;;4.32;3.95;;;;;;;51.07;10.03;100352.34;5014348;28;20417;-77
2021/08/14 10:03:14;;;;;;;6.43;4.05;;;;;;;51.53;9.92;100348.84;4997824;28;20490;-76
2021/08/14 10:05:49;;;;;;;;;;;;;;;51.28;9.64;100346.88;5015146;28;20046;-77
2021/08/14 10:08:22;;;;;;;4.43;3.90;;;;;;;50.72;10.32;100339.97;5015168;28;19917;-77
2021/08/14 10:10:51;;;;;;;4.28;3.80;;;;;;;50.91;10.24;100334.81;5014295;28;20046;-77
2021/08/14 10:13:24;;;;;;;4.90;4.07;;;;;;;51.27;9.85;100350.75;5013087;28;20045;-78
2021/08/14 10:15:53;;;;;;;4.57;4.10;;;;;;;51.25;9.69;100341.88;5013992;28;20060;-76
2021/08/14 10:18:19;;;;;;;4.30;3.90;;;;;;;51.51;9.56;100343.59;5012610;28;20494;-78
2021/08/14 10:20:46;;;;;;;5.10;4.10;;;;;;;51.05;9.70;100347.06;5013977;28;20547;-77
2021/08/14 10:23:29;;;;;;;4.45;4.03;;;;;;;49.94;9.43;100311.78;5013430;28;20489;-77
2021/08/14 10:26:31;;;;;;;4.63;3.80;;;;;;;49.92;9.12;100280.81;4997129;28;20049;-76
2021/08/14 10:29:00;;;;;;;5.90;3.95;;;;;;;50.02;9.60;100280.88;4994391;28;20084;-76
2021/08/14 10:31:29;;;;;;;3.95;3.60;;;;;;;49.92;9.59;100316.75;4995334;28;20046;-77
2021/08/14 10:34:12;;;;;;;4.95;3.95;;;;;;;48.42;9.77;100235.03;4995047;28;20046;-77
2021/08/14 10:36:46;;;;;;;3.88;3.42;;;;;;;47.79;10.16;100315.06;4995386;28;20042;-78
2021/08/14 10:39:31;;;;;;;4.13;3.72;;;;;;;46.66;10.54;100313.63;5009765;28;20137;-77
2021/08/14 10:42:02;;;;;;;6.20;3.90;;;;;;;45.03;11.37;100319.03;5014618;28;20386;-78
2021/08/14 10:44:42;;;;;;;5.65;3.35;;;;;;;43.10;12.97;100321.06;5013318;28;20053;-77
2021/08/14 10:47:50;;;;;;;5.22;3.65;;;;;;;41.37;14.27;100327.94;5012341;28;20116;-78
2021/08/14 10:50:31;;;;;;;7.00;3.85;;;;;;;40.04;15.51;100323.22;4997091;28;20186;-77
2021/08/14 10:53:18;;;;;;;6.70;4.20;;;;;;;39.22;15.78;100317.88;5012812;28;20053;-76
2021/08/14 10:56:06;;;;;;;5.10;4.28;;;;;;;38.46;16.67;100320.75;5012794;28;20275;-77
2021/08/14 10:58:38;;;;;;;10.02;4.90;;;;;;;37.31;17.82;100304.16;5013417;28;20054;-76
2021/08/14 11:01:07;;;;;;;8.30;4.57;;;;;;;36.43;18.81;100323.81;5031436;28;20051;-77
2021/08/14 11:03:43;;;;;;;8.02;4.10;;;;;;;34.96;19.99;100236.78;4999292;28;20141;-77
2021/08/14 11:06:29;;;;;;;6.43;3.90;;;;;;;34.62;20.74;100322.19;5015363;28;20053;-77
2021/08/14 11:09:17;;;;;;;6.85;3.55;;;;;;;34.05;21.52;100319.84;5015397;28;20049;-76
2021/08/14 11:11:55;;;;;;;5.18;3.55;;;;;;;33.45;21.54;100302.31;4999745;28;20505;-77
2021/08/14 11:14:44;;;;;;;4.97;3.40;;;;;;;33.09;21.96;100299.50;5027680;28;20615;-76
2021/08/14 11:17:14;;;;;;;5.28;3.83;;;;;;;32.68;22.60;100303.28;5010210;28;20054;-76
2021/08/14 11:19:50;;;;;;;;;;;;;;;32.80;22.73;100320.13;5003670;28;20067;-77
2021/08/14 11:22:42;;;;;;;5.00;3.72;;;;;;;32.80;22.67;100316.56;5015733;28;19921;-75
2021/08/14 11:25:28;;;;;;;6.68;3.75;;;;;;;32.25;23.58;100315.38;5010747;28;20065;-76
2021/08/14 11:28:07;;;;;;;6.40;4.32;;;;;;;31.88;23.16;100305.31;5014699;28;20533;-76
2021/08/14 11:30:35;;;;;;;4.90;3.90;;;;;;;31.61;23.20;100317.53;5015914;28;20108;-77
2021/08/14 11:33:04;;;;;;;5.47;3.80;;;;;;;31.25;23.84;100309.94;5014077;28;20037;-76